Time;durP1;ratioP1;P1;durP2;ratioP2;P2;SDS_P1;SDS_P2;PMS_P1;PMS_P2;Temp;Humidity;BMP_temperature;BMP_pressure;BME280_temperature;BME280_humidity;BME280_pressure;Samples;Min_cycle;Max_cycle;Signal;HPM_P1;HPM_P2
2022/06/18 00:01:51;;;;;;;7.55;4.30;;;22.80;58.20;;;;;;5075493;28;20028;-12
2022/06/18 00:04:20;;;;;;;5.13;4.15;;;22.90;58.60;;;;;;5075071;28;20107;-12
2022/06/18 00:06:53;;;;;;;5.50;3.78;;;22.90;58.60;;;;;;5076113;28;20066;-12
2022/06/18 00:09:42;;;;;;;5.95;4.00;;;22.80;58.40;;;;;;5075164;28;20442;-12
2022/06/18 00:15:15;;;;;;;5.35;3.97;;;22.80;58.50;;;;;;5075470;28;20082;-12
2022/06/18 00:17:43;;;;;;;4.00;3.42;;;22.80;58.70;;;;;;5075069;28;20032;-12
2022/06/18 00:20:13;;;;;;;5.72;4.22;;;22.80;58.40;;;;;;5074928;28;20449;-11
2022/06/18 00:22:41;;;;;;;6.40;4.30;;;22.80;58.60;;;;;;5075118;28;20447;-12
2022/06/18 00:25:21;;;;;;;5.55;4.30;;;22.80;58.60;;;;;;5074967;28;20422;-11
2022/06/18 00:27:48;;;;;;;7.57;4.32;;;22.70;58.90;;;;;;5075166;28;20480;-11
2022/06/18 00:30:17;;;;;;;8.13;4.53;;;22.70;59.00;;;;;;5075345;28;20025;-11
2022/06/18 00:32:43;;;;;;;6.53;4.43;;;22.50;59.10;;;;;;5074861;28;20020;-11
2022/06/18 00:35:12;;;;;;;6.38;4.75;;;22.50;59.20;;;;;;5075036;28;20033;-12
2022/06/18 00:37:39;;;;;;;6.10;4.35;;;22.40;59.50;;;;;;5074956;28;20103;-11
2022/06/18 00:40:20;;;;;;;5.88;4.72;;;22.30;59.60;;;;;;5074588;28;20488;-12
2022/06/18 00:42:45;;;;;;;4.88;3.65;;;22.20;60.10;;;;;;5074635;28;20024;-11
2022/06/18 00:45:18;;;;;;;5.75;4.15;;;22.10;60.00;;;;;;5074422;28;20025;-12
2022/06/18 00:47:50;;;;;;;6.35;4.30;;;22.00;60.20;;;;;;5073264;28;20032;-11
2022/06/18 00:50:31;;;;;;;5.65;4.32;;;21.90;60.40;;;;;;5073674;28;20170;-12
2022/06/18 00:53:15;;;;;;;6.50;4.45;;;21.90;60.60;;;;;;5074416;28;20021;-12
2022/06/18 00:55:54;;;;;;;7.68;4.55;;;21.80;61.10;;;;;;5074675;28;20039;-11
2022/06/18 00:58:35;;;;;;;5.30;4.22;;;21.70;60.90;;;;;;5074080;28;20115;-12
2022/06/18 01:01:09;;;;;;;5.90;4.28;;;21.60;61.20;;;;;;5073080;28;20094;-11
2022/06/18 01:03:38;;;;;;;7.30;4.63;;;21.60;61.10;;;;;;5074572;28;20070;-10
2022/06/18 01:06:16;;;;;;;6.68;4.68;;;21.50;61.70;;;;;;5074348;28;20033;-11
2022/06/18 01:08:44;;;;;;;8.50;5.57;;;21.40;61.60;;;;;;5073816;28;20518;-12
2022/06/18 01:11:31;;;;;;;11.30;7.25;;;21.40;61.80;;;;;;5074328;28;20024;-12
2022/06/18 01:13:58;;;;;;;9.13;5.95;;;21.30;62.20;;;;;;5074210;28;20024;-10
2022/06/18 01:16:25;;;;;;;9.48;6.00;;;21.30;62.20;;;;;;5073859;28;20067;-11
2022/06/18 01:18:52;;;;;;;8.10;6.25;;;21.30;62.20;;;;;;5073920;28;20515;-12
2022/06/18 01:21:44;;;;;;;9.18;6.40;;;21.30;62.30;;;;;;5072582;28;20030;-12
2022/06/18 01:24:10;;;;;;;7.68;5.60;;;21.30;62.30;;;;;;5074166;28;20025;-12
2022/06/18 01:26:36;;;;;;;12.15;7.10;;;21.30;62.40;;;;;;5073519;28;20028;-11
2022/06/18 01:29:03;;;;;;;10.05;6.50;;;21.30;62.60;;;;;;5073546;28;20489;-12
2022/06/18 01:31:30;;;;;;;7.03;5.03;;;21.20;62.80;;;;;;5073823;28;20036;-12
2022/06/18 01:33:57;;;;;;;9.25;6.25;;;21.20;63.00;;;;;;5073580;28;20028;-11
2022/06/18 01:36:28;;;;;;;9.02;6.40;;;21.20;63.10;;;;;;5073649;28;20056;-11
2022/06/18 01:38:55;;;;;;;8.07;6.28;;;21.10;63.20;;;;;;5073938;28;20560;-11
2022/06/18 01:41:51;;;;;;;11.65;7.35;;;21.10;63.30;;;;;;5074636;28;20047;-11
2022/06/18 01:44:39;;;;;;;15.35;7.82;;;21.10;63.60;;;;;;5073278;28;20472;-11
2022/06/18 01:47:15;;;;;;;12.13;7.25;;;21.00;63.90;;;;;;5073819;28;20035;-11
2022/06/18 01:49:49;;;;;;;9.55;6.53;;;20.90;64.20;;;;;;5073343;28;20043;-11
2022/06/18 01:52:21;;;;;;;6.90;5.85;;;20.90;64.10;;;;;;5073483;28;20040;-12
2022/06/18 01:54:54;;;;;;;12.13;7.30;;;20.90;64.20;;;;;;5073640;28;20025;-12
2022/06/18 01:57:32;;;;;;;9.20;6.93;;;20.90;64.70;;;;;;5073511;28;20021;-11
2022/06/18 02:00:12;;;;;;;9.25;7.15;;;20.90;64.60;;;;;;5073591;28;20051;-12
2022/06/18 02:02:41;;;;;;;11.23;7.97;;;20.90;64.50;;;;;;5072199;28;20017;-12
2022/06/18 02:05:09;;;;;;;9.50;7.18;;;20.90;64.70;;;;;;5073170;28;20024;-11
2022/06/18 02:07:35;;;;;;;9.32;7.32;;;21.00;64.70;;;;;;5073653;28;20031;-11
2022/06/18 02:10:14;;;;;;;11.95;7.53;;;21.00;64.70;;;;;;5071973;28;20029;-12
2022/06/18 02:12:42;;;;;;;12.35;9.15;;;21.00;64.90;;;;;;5073614;28;20031;-12
2022/06/18 02:15:22;;;;;;;11.82;8.25;;;21.00;65.20;;;;;;5073380;28;20037;-11
2022/06/18 02:17:48;;;;;;;13.40;7.55;;;21.00;64.90;;;;;;5073271;28;20021;-11
2022/06/18 02:20:25;;;;;;;9.10;7.32;;;21.10;64.60;;;;;;5073110;28;20052;-11
2022/06/18 02:22:54;;;;;;;11.50;7.88;;;21.20;64.50;;;;;;5073380;28;20028;-12
2022/06/18 02:25:23;;;;;;;9.90;7.57;;;21.10;64.60;;;;;;5073307;28;20031;-11
2022/06/18 02:27:57;;;;;;;11.55;7.93;;;21.10;64.50;;;;;;5072880;28;20029;-11
2022/06/18 02:30:27;;;;;;;10.20;6.68;;;21.10;64.90;;;;;;5072940;28;20029;-12
2022/06/18 02:33:04;;;;;;;10.23;7.43;;;21.00;64.90;;;;;;5072904;28;20511;-13
2022/06/18 02:35:33;;;;;;;10.52;7.80;;;21.00;65.10;;;;;;5073180;28;20024;-12
2022/06/18 02:38:00;;;;;;;11.05;8.10;;;20.90;65.30;;;;;;5072860;28;20503;-11
2022/06/18 02:40:30;;;;;;;9.90;8.20;;;20.90;65.80;;;;;;5072928;28;20024;-12
2022/06/18 02:43:00;;;;;;;13.68;9.27;;;20.80;65.90;;;;;;5073113;28;20035;-11
2022/06/18 02:45:28;;;;;;;13.10;9.10;;;20.70;66.40;;;;;;5072728;28;20027;-11
2022/06/18 02:47:58;;;;;;;11.88;8.43;;;20.70;66.30;;;;;;5072999;28;20427;-11
2022/06/18 02:50:28;;;;;;;10.27;8.27;;;20.70;66.40;;;;;;5072371;28;20052;-11
2022/06/18 02:53:00;;;;;;;12.32;9.30;;;20.60;66.30;;;;;;5073022;28;20147;-11
2022/06/18 02:55:40;;;;;;;10.60;8.32;;;20.70;66.50;;;;;;5073037;28;20025;-12
2022/06/18 02:58:21;;;;;;;13.02;10.05;;;20.70;66.60;;;;;;5073003;28;20085;-11
2022/06/18 03:01:03;;;;;;;12.20;8.13;;;20.70;66.70;;;;;;5072572;28;20036;-12
2022/06/18 03:03:35;;;;;;;10.70;8.30;;;20.70;66.40;;;;;;5072955;28;20031;-11
2022/06/18 03:06:02;;;;;;;10.60;8.40;;;20.60;66.40;;;;;;5072930;28;20016;-11
2022/06/18 03:08:29;;;;;;;10.80;8.35;;;20.70;66.50;;;;;;5072670;28;20039;-11
2022/06/18 03:13:40;;;;;;;11.73;7.88;;;20.70;66.60;;;;;;5074195;28;20082;-11
2022/06/18 03:16:08;;;;;;;12.65;8.50;;;20.70;66.60;;;;;;5076077;28;20032;-13
2022/06/18 03:18:37;;;;;;;12.25;8.35;;;20.70;66.60;;;;;;5075959;28;20020;-12
2022/06/18 03:21:25;;;;;;;10.68;8.68;;;20.80;66.60;;;;;;5076110;28;20028;-11
2022/06/18 03:23:57;;;;;;;11.85;8.50;;;20.80;67.30;;;;;;5075994;28;20556;-11
2022/06/18 03:26:23;;;;;;;11.00;7.50;;;20.80;66.70;;;;;;5074863;28;20362;-11
2022/06/18 03:28:50;;;;;;;11.63;9.13;;;20.80;66.90;;;;;;5076192;28;20064;-12
2022/06/18 03:31:16;;;;;;;11.65;7.97;;;20.70;66.70;;;;;;5076032;28;20435;-11
2022/06/18 03:33:42;;;;;;;9.77;7.65;;;20.80;67.00;;;;;;5076191;28;20067;-11
2022/06/18 03:36:11;;;;;;;8.98;6.95;;;20.70;66.80;;;;;;5075804;28;20025;-11
2022/06/18 03:38:37;;;;;;;15.25;10.15;;;20.70;66.70;;;;;;5075629;28;20056;-11
2022/06/18 03:41:03;;;;;;;10.85;7.85;;;20.70;66.90;;;;;;5076369;28;20063;-10
2022/06/18 03:43:30;;;;;;;13.73;8.15;;;20.80;67.10;;;;;;5075705;28;20115;-11
2022/06/18 03:46:08;;;;;;;13.63;9.05;;;20.80;67.00;;;;;;5075607;28;20039;-12
2022/06/18 03:48:49;;;;;;;11.48;9.23;;;20.80;66.90;;;;;;5075540;28;21080;-10
2022/06/18 03:51:17;;;;;;;11.38;9.18;;;20.80;67.20;;;;;;5075457;28;20052;-11
2022/06/18 03:53:44;;;;;;;12.43;8.20;;;20.80;67.70;;;;;;5075879;28;20033;-11
2022/06/18 03:56:12;;;;;;;12.10;8.20;;;20.80;67.60;;;;;;5075793;28;20056;-12
2022/06/18 03:58:39;;;;;;;12.98;9.30;;;20.80;68.10;;;;;;5075565;28;20099;-11
2022/06/18 04:01:05;;;;;;;11.77;8.65;;;20.90;68.90;;;;;;5074108;28;20024;-11
2022/06/18 04:03:31;;;;;;;11.73;8.43;;;20.90;67.90;;;;;;5075811;28;20365;-11
2022/06/18 04:05:57;;;;;;;10.48;8.52;;;20.90;67.90;;;;;;5075286;28;20055;-11
2022/06/18 04:08:23;;;;;;;11.02;8.40;;;20.90;68.00;;;;;;5074950;28;20033;-11
2022/06/18 04:10:50;;;;;;;10.50;8.90;;;21.00;67.90;;;;;;5075485;28;20039;-9
2022/06/18 04:13:16;;;;;;;12.57;9.73;;;21.00;68.00;;;;;;5075570;28;20396;-11
2022/06/18 04:15:42;;;;;;;11.00;9.10;;;21.10;68.40;;;;;;5075048;28;20032;-12
2022/06/18 04:18:12;;;;;;;13.90;9.30;;;21.10;67.80;;;;;;5075094;28;20025;-11
2022/06/18 04:20:38;;;;;;;11.93;8.80;;;21.20;67.40;;;;;;5075159;28;20043;-11
2022/06/18 04:23:05;;;;;;;12.05;9.55;;;21.30;67.60;;;;;;5075540;28;20468;-11
2022/06/18 04:25:31;;;;;;;15.98;9.70;;;21.30;67.50;;;;;;5074169;28;20388;-10
2022/06/18 04:27:58;;;;;;;11.80;9.10;;;21.40;67.70;;;;;;5074805;28;20027;-11
2022/06/18 04:30:30;;;;;;;14.07;10.80;;;21.50;67.50;;;;;;5074648;28;20024;-11
2022/06/18 04:32:57;;;;;;;17.50;13.00;;;21.50;67.40;;;;;;5075242;28;20437;-11
2022/06/18 04:35:23;;;;;;;19.70;11.20;;;21.60;67.70;;;;;;5075033;28;20028;-11
2022/06/18 04:37:49;;;;;;;15.00;8.77;;;21.70;67.40;;;;;;5074996;28;20060;-11
2022/06/18 04:40:31;;;;;;;10.02;8.60;;;21.80;66.80;;;;;;5073204;28;20051;-11
2022/06/18 04:43:06;;;;;;;12.98;10.63;;;21.90;66.50;;;;;;5074925;28;20136;-11
2022/06/18 04:45:32;;;;;;;11.27;8.30;;;21.90;66.50;;;;;;5074789;28;20078;-12
2022/06/18 04:47:59;;;;;;;14.27;9.13;;;22.00;66.40;;;;;;5074472;28;20039;-11
2022/06/18 04:50:32;;;;;;;13.93;9.23;;;22.10;66.60;;;;;;5074024;28;20052;-11
2022/06/18 04:52:58;;;;;;;11.20;8.48;;;22.30;65.90;;;;;;5074877;28;20025;-11
2022/06/18 04:55:24;;;;;;;10.40;9.15;;;22.40;65.90;;;;;;5074344;28;20029;-11
2022/06/18 04:57:50;;;;;;;11.25;9.18;;;22.40;65.80;;;;;;5074582;28;20448;-11
2022/06/18 05:00:17;;;;;;;13.00;9.02;;;22.50;65.50;;;;;;5074277;28;20058;-11
2022/06/18 05:02:44;;;;;;;12.20;8.77;;;22.50;65.40;;;;;;5074086;28;20389;-10
2022/06/18 05:05:22;;;;;;;11.02;8.65;;;22.60;65.20;;;;;;5074134;28;20020;-12
2022/06/18 05:07:49;;;;;;;12.32;8.73;;;22.70;65.40;;;;;;5074029;28;20028;-11
2022/06/18 05:10:15;;;;;;;10.70;8.23;;;22.80;64.90;;;;;;5074129;28;20073;-12
2022/06/18 05:12:42;;;;;;;10.20;8.65;;;22.80;64.80;;;;;;5074238;28;20021;-11
2022/06/18 05:15:09;;;;;;;13.55;9.32;;;22.90;64.40;;;;;;5074463;28;20071;-10
2022/06/18 05:17:39;;;;;;;13.93;7.68;;;23.00;64.10;;;;;;5073860;28;20096;-11
2022/06/18 05:20:05;;;;;;;15.15;10.10;;;23.10;63.80;;;;;;5073947;28;20028;-10
2022/06/18 05:22:31;;;;;;;12.18;9.52;;;23.20;63.70;;;;;;5073571;28;20035;-11
2022/06/18 05:24:57;;;;;;;10.70;8.07;;;23.20;63.20;;;;;;5074617;28;20029;-11
2022/06/18 05:27:33;;;;;;;10.57;8.95;;;23.30;63.00;;;;;;5073952;28;20027;-10
2022/06/18 05:30:00;;;;;;;12.43;9.02;;;23.40;62.50;;;;;;5073707;28;20032;-11
2022/06/18 05:32:27;;;;;;;13.85;9.40;;;23.60;62.10;;;;;;5073282;28;20107;-11
2022/06/18 05:34:53;;;;;;;12.57;8.40;;;23.80;61.00;;;;;;5073605;28;20036;-11
2022/06/18 05:37:25;;;;;;;11.88;8.48;;;23.90;61.00;;;;;;5073515;28;20020;-10
2022/06/18 05:39:51;;;;;;;11.23;8.77;;;24.00;60.60;;;;;;5073607;28;20024;-11
2022/06/18 05:42:17;;;;;;;14.63;8.93;;;24.20;60.20;;;;;;5073568;28;20107;-11
2022/06/18 05:44:43;;;;;;;10.30;7.60;;;24.30;59.70;;;;;;5055549;28;20564;-11
2022/06/18 05:47:20;;;;;;;11.15;8.48;;;24.40;59.10;;;;;;5074179;28;20029;-11
2022/06/18 05:49:46;;;;;;;12.10;7.95;;;24.50;58.10;;;;;;5073432;28;20032;-11
2022/06/18 05:52:13;;;;;;;11.57;8.05;;;24.60;58.20;;;;;;5073073;28;20052;-11
2022/06/18 05:54:38;;;;;;;10.60;8.07;;;24.80;57.70;;;;;;5073491;28;20032;-11
2022/06/18 05:57:05;;;;;;;12.05;8.25;;;24.80;57.50;;;;;;5073597;28;20468;-10
2022/06/18 05:59:32;;;;;;;12.32;8.50;;;24.90;57.40;;;;;;5073250;28;20021;-11
2022/06/18 06:01:59;;;;;;;9.77;6.40;;;25.00;57.00;;;;;;5073145;28;20116;-11
2022/06/18 06:04:26;;;;;;;10.13;7.45;;;25.10;57.10;;;;;;5073824;28;20025;-10
2022/06/18 06:06:53;;;;;;;11.80;7.43;;;25.20;56.30;;;;;;5074288;28;20346;-11
2022/06/18 06:12:10;;;;;;;9.40;6.93;;;25.40;55.40;;;;;;5073452;28;20067;-11
2022/06/18 06:14:37;;;;;;;9.68;6.93;;;25.40;55.20;;;;;;5072903;28;20056;-11
2022/06/18 06:17:04;;;;;;;10.90;7.05;;;25.40;55.20;;;;;;5073824;28;20024;-11
2022/06/18 06:19:29;;;;;;;8.10;6.30;;;25.50;54.90;;;;;;5073300;28;20017;-11
2022/06/18 06:21:55;;;;;;;11.80;6.78;;;25.60;54.90;;;;;;5073054;28;20043;-11
2022/06/18 06:24:21;;;;;;;11.50;9.82;;;25.60;54.60;;;;;;5071681;28;20025;-11
2022/06/18 06:26:48;;;;;;;14.88;11.00;;;25.70;55.00;;;;;;5073144;28;20025;-11
2022/06/18 06:29:15;;;;;;;16.67;11.10;;;25.90;54.90;;;;;;5073193;28;20020;-10
2022/06/18 06:31:40;;;;;;;12.77;10.60;;;26.00;54.50;;;;;;5073010;28;20025;-10
2022/06/18 06:34:06;;;;;;;15.75;11.98;;;26.10;54.50;;;;;;5072856;28;20035;-9
2022/06/18 06:36:33;;;;;;;15.15;11.57;;;26.20;54.20;;;;;;5072690;28;20114;-10
2022/06/18 06:38:59;;;;;;;13.23;10.13;;;26.30;54.30;;;;;;5072826;28;20369;-11
2022/06/18 06:41:28;;;;;;;13.32;9.85;;;26.40;54.20;;;;;;5072766;28;20358;-10
2022/06/18 06:43:54;;;;;;;12.85;11.38;;;26.40;54.10;;;;;;5073296;28;20024;-10
2022/06/18 06:46:20;;;;;;;15.95;11.38;;;26.60;53.70;;;;;;5072490;28;20560;-11
2022/06/18 06:48:47;;;;;;;14.07;10.50;;;26.70;54.10;;;;;;5074861;28;20037;-11
2022/06/18 06:51:24;;;;;;;16.77;9.88;;;26.80;53.40;;;;;;5075259;28;20052;-11
2022/06/18 06:53:51;;;;;;;11.48;8.75;;;26.90;53.40;;;;;;5077002;28;20032;-11
2022/06/18 06:59:05;;;;;;;10.18;8.25;;;27.10;53.40;;;;;;5076649;28;20385;-11
2022/06/18 07:01:32;;;;;;;10.23;7.55;;;27.30;53.30;;;;;;5075220;28;20043;-11
2022/06/18 07:03:58;;;;;;;12.10;6.97;;;27.30;53.10;;;;;;5076794;28;20021;-11
2022/06/18 07:06:24;;;;;;;9.20;6.97;;;27.40;53.30;;;;;;5076575;28;20110;-11
2022/06/18 07:08:50;;;;;;;10.85;6.40;;;27.50;53.20;;;;;;5076590;28;20067;-11
2022/06/18 07:11:17;;;;;;;9.93;6.13;;;27.70;52.90;;;;;;5076289;28;20111;-10
2022/06/18 07:13:43;;;;;;;10.15;7.35;;;27.80;52.60;;;;;;5076527;28;20103;-11
2022/06/18 07:16:12;;;;;;;8.55;6.70;;;27.90;52.90;;;;;;5076458;28;20111;-11
2022/06/18 07:18:39;;;;;;;13.90;7.15;;;28.10;52.70;;;;;;5076327;28;20028;-11
2022/06/18 07:21:15;;;;;;;9.35;7.03;;;28.20;52.50;;;;;;5076466;28;20027;-11
2022/06/18 07:23:41;;;;;;;9.90;7.00;;;28.30;52.00;;;;;;5076502;28;20024;-10
2022/06/18 07:26:07;;;;;;;7.22;6.32;;;28.40;52.30;;;;;;5076052;28;20027;-10
2022/06/18 07:28:34;;;;;;;10.75;6.60;;;28.50;52.40;;;;;;5076051;28;20025;-10
2022/06/18 07:31:01;;;;;;;11.98;7.22;;;28.70;52.10;;;;;;5075890;28;20025;-11
2022/06/18 07:33:29;;;;;;;9.80;7.28;;;28.80;51.90;;;;;;5076238;28;20025;-10
2022/06/18 07:35:55;;;;;;;10.32;7.75;;;28.90;52.40;;;;;;5075862;28;20029;-11
2022/06/18 07:38:21;;;;;;;9.15;6.68;;;29.00;52.80;;;;;;5075618;28;20024;-11
2022/06/18 07:40:54;;;;;;;7.43;6.38;;;29.10;52.30;;;;;;5074576;28;20146;-10
2022/06/18 07:43:34;;;;;;;9.20;6.70;;;29.40;51.60;;;;;;5075800;28;20025;-11
2022/06/18 07:46:02;;;;;;;9.65;6.85;;;29.60;51.10;;;;;;5075635;28;20072;-10
2022/06/18 07:48:28;;;;;;;10.15;6.53;;;29.80;51.10;;;;;;5075689;28;20075;-10
2022/06/18 07:50:54;;;;;;;8.90;6.80;;;30.00;50.90;;;;;;5075424;28;20457;-10
2022/06/18 07:53:23;;;;;;;8.48;6.97;;;30.20;50.30;;;;;;5075880;28;20064;-11
2022/06/18 07:55:50;;;;;;;10.02;6.80;;;30.30;50.00;;;;;;5075549;28;20035;-11
2022/06/18 07:58:16;;;;;;;8.70;7.05;;;30.40;49.70;;;;;;5075594;28;20027;-10
2022/06/18 08:00:43;;;;;;;8.60;6.72;;;30.40;49.80;;;;;;5074229;28;20029;-11
2022/06/18 08:03:12;;;;;;;8.18;6.70;;;30.50;49.60;;;;;;5075293;28;20020;-11
2022/06/18 08:05:38;;;;;;;7.15;6.05;;;30.60;49.20;;;;;;5075668;28;20031;-11
2022/06/18 08:08:05;;;;;;;6.60;5.75;;;30.80;48.80;;;;;;5075569;28;20033;-11
2022/06/18 08:10:33;;;;;;;7.32;5.93;;;31.00;48.50;;;;;;5075401;28;20025;-11
2022/06/18 08:12:59;;;;;;;6.88;5.35;;;31.20;47.20;;;;;;5075544;28;20025;-10
2022/06/18 08:15:25;;;;;;;8.25;6.00;;;31.40;46.90;;;;;;5075203;28;20028;-10
2022/06/18 08:17:51;;;;;;;6.72;5.60;;;31.70;45.90;;;;;;5075160;28;20021;-11
2022/06/18 08:20:17;;;;;;;7.40;5.70;;;31.90;45.60;;;;;;5074888;28;20035;-11
2022/06/18 08:22:47;;;;;;;6.93;5.43;;;32.20;45.10;;;;;;5074992;28;20029;-11
2022/06/18 08:25:16;;;;;;;7.28;5.82;;;32.50;44.80;;;;;;5075575;28;20056;-11
2022/06/18 08:27:43;;;;;;;6.75;5.68;;;32.70;44.60;;;;;;5074832;28;20489;-11
2022/06/18 08:30:10;;;;;;;8.18;5.60;;;32.70;44.20;;;;;;5075157;28;20025;-12
2022/06/18 08:32:36;;;;;;;12.85;7.00;;;32.60;44.40;;;;;;5074520;28;20031;-11
2022/06/18 08:35:02;;;;;;;6.38;5.13;;;32.70;43.90;;;;;;5075617;28;20119;-11
2022/06/18 08:37:29;;;;;;;8.88;6.90;;;32.80;44.00;;;;;;5074670;28;20037;-11
2022/06/18 08:39:57;;;;;;;6.80;5.47;;;33.00;44.00;;;;;;5073444;28;20190;-10
2022/06/18 08:42:53;;;;;;;8.55;5.95;;;33.00;44.00;;;;;;5074391;28;20484;-12
2022/06/18 08:45:40;;;;;;;7.28;5.90;;;33.10;43.60;;;;;;5075443;28;20031;-11
2022/06/18 08:48:19;;;;;;;7.43;6.00;;;33.20;43.10;;;;;;5074420;28;20036;-11
2022/06/18 08:50:50;;;;;;;9.43;6.60;;;33.30;43.10;;;;;;5074145;28;20040;-11
2022/06/18 08:53:30;;;;;;;6.57;5.60;;;33.30;43.20;;;;;;5074396;28;20079;-11
2022/06/18 08:55:59;;;;;;;9.48;6.22;;;33.40;41.60;;;;;;5075008;28;20032;-10
2022/06/18 08:58:49;;;;;;;6.05;4.95;;;33.40;42.80;;;;;;5074064;28;20024;-10
2022/06/18 09:01:29;;;;;;;8.20;6.07;;;33.70;43.10;;;;;;5074178;28;20111;-10
2022/06/18 09:04:10;;;;;;;7.45;5.70;;;34.00;42.00;;;;;;5074214;28;20358;-10
2022/06/18 09:07:04;;;;;;;6.80;5.97;;;34.20;41.20;;;;;;5073952;28;20077;-11
2022/06/18 09:09:48;;;;;;;6.10;5.13;;;34.30;42.00;;;;;;5073965;28;20025;-11
2022/06/18 09:12:24;;;;;;;7.68;5.55;;;34.00;42.40;;;;;;5073822;28;20028;-13
2022/06/18 09:15:01;;;;;;;6.35;5.25;;;33.90;42.70;;;;;;5074331;28;20025;-11
2022/06/18 09:17:41;;;;;;;7.63;5.68;;;33.80;42.80;;;;;;5073835;28;20481;-11
2022/06/18 09:20:08;;;;;;;5.82;5.07;;;33.70;41.90;;;;;;5074259;28;20017;-11
2022/06/18 09:22:46;;;;;;;6.97;5.53;;;33.60;42.40;;;;;;5074550;28;20044;-10
2022/06/18 09:25:17;;;;;;;6.18;5.57;;;33.70;42.00;;;;;;5074107;28;20035;-11
2022/06/18 09:28:08;;;;;;;8.38;5.65;;;34.10;41.40;;;;;;5073904;28;20021;-12
2022/06/18 09:30:52;;;;;;;7.18;6.30;;;34.30;40.70;;;;;;5071037;28;20040;-11
2022/06/18 09:33:51;;;;;;;9.93;6.30;;;34.20;40.00;;;;;;5073595;28;20480;-11
2022/06/18 09:36:20;;;;;;;7.05;5.53;;;33.70;41.30;;;;;;5073407;28;20494;-11
2022/06/18 09:38:56;;;;;;;9.25;5.80;;;33.40;42.10;;;;;;5073804;28;20127;-10
2022/06/18 09:41:30;;;;;;;7.20;6.13;;;33.40;42.30;;;;;;5073566;28;20467;-10
2022/06/18 09:44:07;;;;;;;6.75;5.63;;;33.50;41.60;;;;;;5073850;28;20112;-11
2022/06/18 09:46:53;;;;;;;7.05;5.97;;;33.80;41.50;;;;;;5073542;28;20038;-11
2022/06/18 09:49:18;;;;;;;7.32;5.43;;;34.10;40.90;;;;;;5073699;28;20060;-10
2022/06/18 09:51:52;;;;;;;9.02;6.25;;;34.20;40.40;;;;;;5073166;28;20087;-10
2022/06/18 09:54:20;;;;;;;7.88;5.70;;;34.60;39.60;;;;;;5073543;28;20035;-10
2022/06/18 09:56:52;;;;;;;6.90;5.10;;;35.10;39.20;;;;;;5073258;28;20035;-11
2022/06/18 09:59:45;;;;;;;6.95;5.80;;;35.60;38.10;;;;;;5073329;28;20098;-11
2022/06/18 10:02:22;;;;;;;7.90;5.15;;;36.20;37.30;;;;;;5073554;28;20093;-10
2022/06/18 10:07:39;;;;;;;6.70;6.00;;;37.00;35.40;;;;;;5073589;28;20116;-10
2022/06/18 10:10:14;;;;;;;7.03;5.35;;;37.30;35.10;;;;;;5073633;28;20032;-10
2022/06/18 10:12:53;;;;;;;6.63;5.25;;;37.40;35.00;;;;;;5073200;28;20023;-10
2022/06/18 10:15:21;;;;;;;7.50;5.70;;;37.70;34.40;;;;;;5073190;28;20031;-10
2022/06/18 10:18:00;;;;;;;6.43;4.93;;;38.10;34.40;;;;;;5073600;28;20096;-10
2022/06/18 10:20:37;;;;;;;8.52;5.05;;;38.40;34.00;;;;;;5072868;28;20046;-10
2022/06/18 10:23:29;;;;;;;6.25;5.05;;;38.70;33.80;;;;;;5072310;28;20485;-10
2022/06/18 10:26:22;;;;;;;7.70;5.05;;;38.90;32.20;;;;;;5073272;28;20486;-10
2022/06/18 10:28:56;;;;;;;6.63;4.63;;;39.00;32.80;;;;;;5072942;28;20499;-10
2022/06/18 10:31:51;;;;;;;7.60;4.90;;;39.00;31.60;;;;;;5072895;28;20037;-10
2022/06/18 10:34:16;;;;;;;9.27;5.15;;;38.90;31.60;;;;;;5071595;28;20025;-10
2022/06/18 10:36:48;;;;;;;5.00;4.32;;;38.90;31.20;;;;;;5073214;28;20120;-11
2022/06/18 10:39:20;;;;;;;6.72;4.60;;;38.90;31.70;;;;;;5071630;28;20032;-10
2022/06/18 10:42:29;;;;;;;5.50;4.30;;;39.20;31.10;;;;;;5073193;28;20021;-10
2022/06/18 10:45:07;;;;;;;5.18;4.45;;;39.40;30.80;;;;;;5054616;28;20035;-11
2022/06/18 10:47:37;;;;;;;5.15;4.55;;;39.50;30.90;;;;;;5072906;28;20029;-11
2022/06/18 10:50:09;;;;;;;7.10;4.47;;;39.50;30.50;;;;;;5072714;28;20032;-11
2022/06/18 10:52:36;;;;;;;6.63;4.63;;;39.50;30.20;;;;;;5072912;28;20029;-10
2022/06/18 10:55:10;;;;;;;6.25;4.63;;;39.80;30.80;;;;;;5072991;28;20036;-10
2022/06/18 10:57:36;;;;;;;6.25;4.20;;;39.80;30.70;;;;;;5073011;28;20029;-10
2022/06/18 11:00:13;;;;;;;8.55;4.50;;;39.90;30.70;;;;;;5072646;28;20058;-11
2022/06/18 11:02:41;;;;;;;6.22;4.57;;;39.80;30.50;;;;;;5072540;28;20063;-10
2022/06/18 11:05:27;;;;;;;7.63;4.70;;;39.60;30.60;;;;;;5072618;28;20477;-11
2022/06/18 11:07:54;;;;;;;4.85;4.30;;;39.60;30.00;;;;;;5050432;28;20075;-11
2022/06/18 11:10:22;;;;;;;8.52;4.70;;;39.70;30.80;;;;;;5050498;28;20148;-10
2022/06/18 11:12:56;;;;;;;5.00;4.50;;;39.90;30.10;;;;;;5050499;28;20029;-10
2022/06/18 11:15:37;;;;;;;6.20;4.38;;;40.10;29.80;;;;;;5050942;28;20029;-10
2022/06/18 11:18:33;;;;;;;7.63;4.90;;;39.90;29.80;;;;;;5050326;28;20021;-11
2022/06/18 11:21:06;;;;;;;7.80;4.95;;;39.60;30.50;;;;;;4991026;28;20038;-11
2022/06/18 11:23:36;;;;;;;7.05;4.80;;;39.40;30.40;;;;;;4991235;28;20030;-10
2022/06/18 11:26:10;;;;;;;4.78;4.25;;;39.10;30.30;;;;;;4991312;28;20606;-10
2022/06/18 11:28:43;;;;;;;6.18;4.05;;;38.80;31.00;;;;;;4990938;28;20030;-10
2022/06/18 11:31:13;;;;;;;6.43;4.35;;;38.90;30.80;;;;;;4974767;28;20439;-11
2022/06/18 11:33:55;;;;;;;6.68;4.63;;;39.20;30.50;;;;;;4991107;28;20022;-10
2022/06/18 11:36:31;;;;;;;;;;;39.10;30.00;;;;;;4994689;28;20522;-10
2022/06/18 11:39:00;;;;;;;5.78;4.22;;;38.90;30.30;;;;;;4994749;28;19996;-10
2022/06/18 11:41:48;;;;;;;4.82;4.07;;;38.80;31.60;;;;;;4994453;28;20062;-11
2022/06/18 11:44:44;;;;;;;4.65;3.90;;;39.20;30.70;;;;;;5002694;28;20060;-10
2022/06/18 11:47:26;;;;;;;5.35;4.13;;;39.60;30.10;;;;;;5033696;28;20104;-10
2022/06/18 11:49:57;;;;;;;5.90;4.03;;;40.20;29.40;;;;;;5033413;28;20037;-12
2022/06/18 11:52:33;;;;;;;7.68;4.05;;;40.40;29.30;;;;;;5016966;28;20052;-10
2022/06/18 11:55:13;;;;;;;5.03;4.00;;;40.90;28.70;;;;;;5033675;28;20116;-11
2022/06/18 11:57:54;;;;;;;6.68;3.97;;;41.20;27.90;;;;;;5059876;28;20020;-11
2022/06/18 12:00:46;;;;;;;6.63;4.50;;;41.60;27.60;;;;;;5075486;28;20524;-10
2022/06/18 12:03:38;;;;;;;5.40;3.67;;;42.00;26.50;;;;;;5075410;28;20100;-10
2022/06/18 12:06:22;;;;;;;5.03;3.63;;;42.20;27.10;;;;;;5075397;28;20400;-11
2022/06/18 12:08:48;;;;;;;5.35;3.65;;;42.50;26.40;;;;;;5075232;28;20527;-11
2022/06/18 12:11:29;;;;;;;7.53;3.97;;;42.40;26.90;;;;;;5075245;28;20037;-11
2022/06/18 12:14:09;;;;;;;4.85;3.75;;;42.40;27.00;;;;;;5075568;28;20048;-11
2022/06/18 12:16:56;;;;;;;6.63;4.10;;;42.50;27.10;;;;;;5075473;28;20032;-11
2022/06/18 12:19:34;;;;;;;7.28;4.07;;;42.70;26.50;;;;;;5070965;28;20123;-10
2022/06/18 12:22:18;;;;;;;4.97;4.03;;;42.70;26.00;;;;;;5075367;28;20035;-10
2022/06/18 12:25:00;;;;;;;6.88;3.95;;;42.50;26.50;;;;;;5075559;28;20393;-10
2022/06/18 12:27:29;;;;;;;5.80;4.00;;;42.40;26.40;;;;;;5075024;28;20158;-10
2022/06/18 12:30:22;;;;;;;5.07;3.70;;;42.20;26.80;;;;;;5075152;28;20029;-11
2022/06/18 12:32:51;;;;;;;7.47;4.07;;;41.90;27.20;;;;;;5074790;28;20393;-10
2022/06/18 12:35:29;;;;;;;4.63;4.07;;;42.10;27.10;;;;;;5075166;28;20028;-11
2022/06/18 12:38:16;;;;;;;5.50;4.18;;;42.30;27.20;;;;;;5074738;28;20028;-10
2022/06/18 12:41:16;;;;;;;6.53;4.00;;;42.40;26.70;;;;;;5075244;28;20054;-10
2022/06/18 12:43:52;;;;;;;4.90;3.75;;;42.50;26.40;;;;;;5074863;28;20025;-10
2022/06/18 12:46:38;;;;;;;4.63;3.72;;;42.60;26.30;;;;;;5073749;28;20028;-11
2022/06/18 12:49:10;;;;;;;6.30;4.40;;;42.60;26.20;;;;;;5074496;28;20028;-11
2022/06/18 12:51:45;;;;;;;5.88;4.20;;;42.60;25.80;;;;;;5074341;28;20063;-11
2022/06/18 12:54:24;;;;;;;5.80;4.05;;;42.60;25.90;;;;;;5075027;28;20044;-10
2022/06/18 12:57:06;;;;;;;5.18;3.70;;;42.40;26.30;;;;;;5074423;28;20117;-10
2022/06/18 12:59:34;;;;;;;;;;;42.30;26.30;;;;;;5074810;28;20112;-10
2022/06/18 13:02:07;;;;;;;6.63;4.30;;;42.30;26.40;;;;;;5074488;28;19905;-11
2022/06/18 13:04:47;;;;;;;6.13;3.85;;;42.30;26.40;;;;;;5073983;28;20066;-9
2022/06/18 13:07:17;;;;;;;5.45;4.03;;;42.30;26.60;;;;;;5074142;28;20032;-10
2022/06/18 13:10:05;;;;;;;11.70;4.38;;;42.20;26.10;;;;;;5073976;28;20386;-10
2022/06/18 13:13:16;;;;;;;6.65;4.10;;;42.00;26.30;;;;;;5074338;28;20032;-10
2022/06/18 13:15:50;;;;;;;5.38;3.65;;;41.70;26.40;;;;;;5052700;28;20040;-10
2022/06/18 13:18:54;;;;;;;7.85;4.32;;;41.40;27.20;;;;;;5051603;28;20048;-10
2022/06/18 13:21:20;;;;;;;5.38;3.90;;;41.40;27.40;;;;;;5035220;28;20032;-11
2022/06/18 13:29:44;;;;;;;4.97;3.85;;;41.40;27.60;;;;;;5051861;28;20435;-10
2022/06/18 13:32:35;;;;;;;4.20;3.60;;;41.40;27.60;;;;;;5051751;28;20027;-10